sensor_id;sensor_type;location;lat;lon;timestamp;pressure;altitude;pressure_sealevel;temperature;humidity
22651;BME280;11492;42.646;23.400;2023-04-28T00:02:10;95255.06;;;8.49;47.35
22651;BME280;11492;42.646;23.400;2023-04-28T00:04:35;95265.03;;;8.60;47.29
22651;BME280;11492;42.646;23.400;2023-04-28T00:07:00;95261.34;;;8.55;47.14
22651;BME280;11492;42.646;23.400;2023-04-28T00:09:26;95265.34;;;8.65;45.98
22651;BME280;11492;42.646;23.400;2023-04-28T00:11:51;95277.41;;;8.65;47.15
22651;BME280;11492;42.646;23.400;2023-04-28T00:14:17;95275.63;;;8.57;46.32
22651;BME280;11492;42.646;23.400;2023-04-28T00:16:42;95270.81;;;8.54;47.16
22651;BME280;11492;42.646;23.400;2023-04-28T00:19:08;95275.44;;;8.43;47.08
22651;BME280;11492;42.646;23.400;2023-04-28T00:21:33;95275.59;;;8.26;47.41
22651;BME280;11492;42.646;23.400;2023-04-28T00:23:59;95274.50;;;8.28;47.52
22651;BME280;11492;42.646;23.400;2023-04-28T00:26:24;95284.94;;;8.35;47.14
22651;BME280;11492;42.646;23.400;2023-04-28T00:28:50;95277.06;;;8.36;47.42
22651;BME280;11492;42.646;23.400;2023-04-28T00:31:15;95283.97;;;8.36;48.00
22651;BME280;11492;42.646;23.400;2023-04-28T00:33:41;95273.72;;;8.44;48.07
22651;BME280;11492;42.646;23.400;2023-04-28T00:36:08;95283.38;;;8.49;48.04
22651;BME280;11492;42.646;23.400;2023-04-28T00:38:33;95278.53;;;8.39;47.66
22651;BME280;11492;42.646;23.400;2023-04-28T00:40:59;95279.28;;;8.16;47.41
22651;BME280;11492;42.646;23.400;2023-04-28T00:43:24;95284.88;;;8.11;47.96
22651;BME280;11492;42.646;23.400;2023-04-28T00:45:50;95279.03;;;8.01;48.10
22651;BME280;11492;42.646;23.400;2023-04-28T00:48:16;95286.63;;;8.03;48.37
22651;BME280;11492;42.646;23.400;2023-04-28T00:50:42;95282.88;;;7.82;48.58
22651;BME280;11492;42.646;23.400;2023-04-28T00:53:09;95285.44;;;7.82;48.56
22651;BME280;11492;42.646;23.400;2023-04-28T00:55:36;95272.38;;;7.68;49.16
22651;BME280;11492;42.646;23.400;2023-04-28T00:58:01;95279.94;;;7.77;48.64
22651;BME280;11492;42.646;23.400;2023-04-28T01:00:27;95277.00;;;7.64;49.57
22651;BME280;11492;42.646;23.400;2023-04-28T01:02:53;95293.19;;;7.57;49.12
22651;BME280;11492;42.646;23.400;2023-04-28T01:05:19;95298.97;;;7.59;49.85
22651;BME280;11492;42.646;23.400;2023-04-28T01:07:44;95297.38;;;7.66;50.58
22651;BME280;11492;42.646;23.400;2023-04-28T01:10:10;95299.50;;;7.70;49.59
22651;BME280;11492;42.646;23.400;2023-04-28T01:12:35;95303.72;;;7.71;50.08
22651;BME280;11492;42.646;23.400;2023-04-28T01:15:01;95291.09;;;7.60;50.19
22651;BME280;11492;42.646;23.400;2023-04-28T01:17:27;95300.84;;;7.49;49.98
22651;BME280;11492;42.646;23.400;2023-04-28T01:19:53;95305.34;;;7.47;49.81
22651;BME280;11492;42.646;23.400;2023-04-28T01:22:18;95305.19;;;7.48;49.98
22651;BME280;11492;42.646;23.400;2023-04-28T01:24:43;95302.38;;;7.34;49.61
22651;BME280;11492;42.646;23.400;2023-04-28T01:27:09;95300.94;;;7.32;49.60
22651;BME280;11492;42.646;23.400;2023-04-28T01:29:35;95308.03;;;7.38;49.75
22651;BME280;11492;42.646;23.400;2023-04-28T01:32:01;95302.72;;;7.39;50.67
22651;BME280;11492;42.646;23.400;2023-04-28T01:34:26;95309.59;;;7.31;50.03
22651;BME280;11492;42.646;23.400;2023-04-28T01:36:51;95307.38;;;7.36;50.55
22651;BME280;11492;42.646;23.400;2023-04-28T01:39:17;95303.78;;;7.29;49.81
22651;BME280;11492;42.646;23.400;2023-04-28T01:41:42;95311.00;;;7.25;49.94
22651;BME280;11492;42.646;23.400;2023-04-28T01:44:08;95307.56;;;7.17;50.03
22651;BME280;11492;42.646;23.400;2023-04-28T01:46:33;95301.53;;;7.26;50.40
22651;BME280;11492;42.646;23.400;2023-04-28T01:48:59;95306.13;;;7.15;51.06
22651;BME280;11492;42.646;23.400;2023-04-28T01:51:25;95303.25;;;7.18;50.91
22651;BME280;11492;42.646;23.400;2023-04-28T01:53:51;95313.69;;;7.24;50.91
22651;BME280;11492;42.646;23.400;2023-04-28T01:56:16;95306.69;;;7.26;51.33
22651;BME280;11492;42.646;23.400;2023-04-28T01:58:42;95307.38;;;7.11;50.25
22651;BME280;11492;42.646;23.400;2023-04-28T02:01:07;95309.31;;;6.92;50.96
22651;BME280;11492;42.646;23.400;2023-04-28T02:03:33;95307.19;;;7.04;50.93
22651;BME280;11492;42.646;23.400;2023-04-28T02:05:58;95310.56;;;7.05;51.04
22651;BME280;11492;42.646;23.400;2023-04-28T02:08:24;95314.91;;;7.12;51.58
22651;BME280;11492;42.646;23.400;2023-04-28T02:10:49;95306.88;;;7.07;50.55
22651;BME280;11492;42.646;23.400;2023-04-28T02:13:15;95313.59;;;7.08;51.12
22651;BME280;11492;42.646;23.400;2023-04-28T02:15:41;95308.97;;;6.87;50.29
22651;BME280;11492;42.646;23.400;2023-04-28T02:18:08;95315.63;;;6.97;50.21
22651;BME280;11492;42.646;23.400;2023-04-28T02:20:33;95314.09;;;6.87;50.71
22651;BME280;11492;42.646;23.400;2023-04-28T02:22:59;95315.69;;;6.88;50.59
22651;BME280;11492;42.646;23.400;2023-04-28T02:25:24;95317.63;;;6.86;51.56
22651;BME280;11492;42.646;23.400;2023-04-28T02:27:49;95323.94;;;6.74;50.83
22651;BME280;11492;42.646;23.400;2023-04-28T02:30:15;95324.34;;;6.87;51.18
22651;BME280;11492;42.646;23.400;2023-04-28T02:32:40;95332.78;;;6.96;51.42
22651;BME280;11492;42.646;23.400;2023-04-28T02:35:06;95328.88;;;6.93;51.44
22651;BME280;11492;42.646;23.400;2023-04-28T02:37:32;95324.78;;;6.99;51.19
22651;BME280;11492;42.646;23.400;2023-04-28T02:39:57;95332.22;;;6.85;50.85
22651;BME280;11492;42.646;23.400;2023-04-28T02:42:23;95330.81;;;6.91;50.62
22651;BME280;11492;42.646;23.400;2023-04-28T02:44:48;95335.44;;;6.87;51.23
22651;BME280;11492;42.646;23.400;2023-04-28T02:47:13;95326.28;;;6.85;50.59
22651;BME280;11492;42.646;23.400;2023-04-28T02:49:39;95338.16;;;6.86;51.06
22651;BME280;11492;42.646;23.400;2023-04-28T02:52:04;95334.94;;;6.84;50.17
22651;BME280;11492;42.646;23.400;2023-04-28T02:54:30;95331.16;;;6.96;50.80
22651;BME280;11492;42.646;23.400;2023-04-28T02:56:57;95343.69;;;6.98;50.73
22651;BME280;11492;42.646;23.400;2023-04-28T02:59:23;95334.09;;;7.00;51.11
22651;BME280;11492;42.646;23.400;2023-04-28T03:01:49;95340.19;;;6.99;51.15
22651;BME280;11492;42.646;23.400;2023-04-28T03:04:16;95347.91;;;6.99;50.89
22651;BME280;11492;42.646;23.400;2023-04-28T03:06:41;95343.41;;;7.01;52.16
22651;BME280;11492;42.646;23.400;2023-04-28T03:09:07;95343.00;;;6.89;52.35
22651;BME280;11492;42.646;23.400;2023-04-28T03:11:33;95347.53;;;6.95;51.71
22651;BME280;11492;42.646;23.400;2023-04-28T03:13:58;95341.59;;;6.94;52.62
22651;BME280;11492;42.646;23.400;2023-04-28T03:16:24;95343.44;;;6.84;51.40
22651;BME280;11492;42.646;23.400;2023-04-28T03:18:49;95334.56;;;6.79;51.28
22651;BME280;11492;42.646;23.400;2023-04-28T03:21:14;95354.94;;;6.80;51.01
22651;BME280;11492;42.646;23.400;2023-04-28T03:23:40;95355.16;;;6.87;50.87
22651;BME280;11492;42.646;23.400;2023-04-28T03:26:05;95362.41;;;6.91;51.07
22651;BME280;11492;42.646;23.400;2023-04-28T03:28:31;95370.25;;;6.90;51.25
22651;BME280;11492;42.646;23.400;2023-04-28T03:30:57;95365.13;;;6.90;51.05
22651;BME280;11492;42.646;23.400;2023-04-28T03:33:22;95371.66;;;6.84;50.63
22651;BME280;11492;42.646;23.400;2023-04-28T03:35:47;95367.53;;;6.91;51.14
22651;BME280;11492;42.646;23.400;2023-04-28T03:38:13;95362.47;;;6.82;50.63
22651;BME280;11492;42.646;23.400;2023-04-28T03:40:39;95372.31;;;6.69;50.11
22651;BME280;11492;42.646;23.400;2023-04-28T03:43:04;95380.19;;;6.68;49.89
22651;BME280;11492;42.646;23.400;2023-04-28T03:45:30;95372.31;;;6.69;50.01
22651;BME280;11492;42.646;23.400;2023-04-28T03:47:55;95377.47;;;6.69;49.94
22651;BME280;11492;42.646;23.400;2023-04-28T03:50:21;95379.66;;;6.64;50.24
22651;BME280;11492;42.646;23.400;2023-04-28T03:52:46;95380.97;;;6.68;50.82
22651;BME280;11492;42.646;23.400;2023-04-28T03:55:12;95400.16;;;6.81;50.60
22651;BME280;11492;42.646;23.400;2023-04-28T03:57:37;95399.78;;;6.76;50.69
22651;BME280;11492;42.646;23.400;2023-04-28T04:00:03;95398.63;;;6.88;51.18
22651;BME280;11492;42.646;23.400;2023-04-28T04:02:29;95410.16;;;6.84;50.79
22651;BME280;11492;42.646;23.400;2023-04-28T04:04:54;95413.22;;;6.88;50.10
22651;BME280;11492;42.646;23.400;2023-04-28T04:07:21;95414.91;;;6.96;50.92
22651;BME280;11492;42.646;23.400;2023-04-28T04:09:46;95412.19;;;6.98;50.59
22651;BME280;11492;42.646;23.400;2023-04-28T04:12:12;95411.09;;;7.00;51.01
22651;BME280;11492;42.646;23.400;2023-04-28T04:14:37;95414.75;;;6.98;51.16
22651;BME280;11492;42.646;23.400;2023-04-28T04:17:03;95425.47;;;7.11;50.43
22651;BME280;11492;42.646;23.400;2023-04-28T04:19:29;95424.06;;;7.16;50.62
22651;BME280;11492;42.646;23.400;2023-04-28T04:21:54;95425.16;;;7.14;51.32
22651;BME280;11492;42.646;23.400;2023-04-28T04:24:19;95415.03;;;7.12;51.23
22651;BME280;11492;42.646;23.400;2023-04-28T04:26:45;95435.78;;;7.19;51.01
22651;BME280;11492;42.646;23.400;2023-04-28T04:29:10;95430.59;;;7.11;50.08
22651;BME280;11492;42.646;23.400;2023-04-28T04:31:36;95435.94;;;7.17;49.38
22651;BME280;11492;42.646;23.400;2023-04-28T04:34:01;95436.59;;;7.19;49.54
22651;BME280;11492;42.646;23.400;2023-04-28T04:36:27;95446.53;;;7.14;49.54
22651;BME280;11492;42.646;23.400;2023-04-28T04:38:52;95449.13;;;7.22;49.08
22651;BME280;11492;42.646;23.400;2023-04-28T04:41:18;95446.41;;;7.23;49.48
22651;BME280;11492;42.646;23.400;2023-04-28T04:43:47;95436.47;;;7.21;49.65
22651;BME280;11492;42.646;23.400;2023-04-28T04:46:12;95436.66;;;7.27;49.56
22651;BME280;11492;42.646;23.400;2023-04-28T04:48:38;95447.66;;;7.37;49.69
22651;BME280;11492;42.646;23.400;2023-04-28T04:51:04;95450.78;;;7.48;48.99
22651;BME280;11492;42.646;23.400;2023-04-28T04:53:29;95454.16;;;7.48;48.46
22651;BME280;11492;42.646;23.400;2023-04-28T04:55:54;95460.78;;;7.51;48.75
22651;BME280;11492;42.646;23.400;2023-04-28T04:58:20;95459.97;;;7.50;48.40
22651;BME280;11492;42.646;23.400;2023-04-28T05:00:46;95467.31;;;7.46;48.36
22651;BME280;11492;42.646;23.400;2023-04-28T05:03:11;95464.41;;;7.41;47.97
22651;BME280;11492;42.646;23.400;2023-04-28T05:05:36;95463.72;;;7.39;47.83
22651;BME280;11492;42.646;23.400;2023-04-28T05:08:02;95475.59;;;7.57;47.89
22651;BME280;11492;42.646;23.400;2023-04-28T05:10:28;95461.38;;;7.70;48.30
22651;BME280;11492;42.646;23.400;2023-04-28T05:12:53;95471.41;;;7.81;48.13
22651;BME280;11492;42.646;23.400;2023-04-28T05:15:18;95466.34;;;7.89;48.10
22651;BME280;11492;42.646;23.400;2023-04-28T05:17:44;95466.00;;;7.92;48.18
22651;BME280;11492;42.646;23.400;2023-04-28T05:20:10;95473.22;;;8.05;47.96
22651;BME280;11492;42.646;23.400;2023-04-28T05:22:35;95466.00;;;7.92;47.16
22651;BME280;11492;42.646;23.400;2023-04-28T05:25:01;95468.91;;;7.89;46.77
22651;BME280;11492;42.646;23.400;2023-04-28T05:27:26;95449.59;;;7.85;47.20
22651;BME280;11492;42.646;23.400;2023-04-28T05:29:51;95471.31;;;8.07;46.73
22651;BME280;11492;42.646;23.400;2023-04-28T05:32:17;95465.84;;;8.10;46.88
22651;BME280;11492;42.646;23.400;2023-04-28T05:34:42;95463.78;;;8.14;46.35
22651;BME280;11492;42.646;23.400;2023-04-28T05:37:07;95466.19;;;8.15;46.23
22651;BME280;11492;42.646;23.400;2023-04-28T05:39:33;95459.25;;;8.41;47.70
22651;BME280;11492;42.646;23.400;2023-04-28T05:41:58;95441.88;;;8.43;47.28
22651;BME280;11492;42.646;23.400;2023-04-28T05:44:24;95466.09;;;8.73;46.11
22651;BME280;11492;42.646;23.400;2023-04-28T05:46:49;95464.38;;;8.81;45.79
22651;BME280;11492;42.646;23.400;2023-04-28T05:49:15;95466.47;;;8.94;45.70
22651;BME280;11492;42.646;23.400;2023-04-28T05:51:41;95465.22;;;9.13;46.95
22651;BME280;11492;42.646;23.400;2023-04-28T05:54:06;95458.81;;;9.17;45.34
22651;BME280;11492;42.646;23.400;2023-04-28T05:56:32;95465.88;;;9.15;44.73
22651;BME280;11492;42.646;23.400;2023-04-28T05:58:57;95467.66;;;9.30;44.44
22651;BME280;11492;42.646;23.400;2023-04-28T06:01:23;95459.59;;;9.10;45.10
22651;BME280;11492;42.646;23.400;2023-04-28T06:03:48;95464.16;;;8.67;45.38
22651;BME280;11492;42.646;23.400;2023-04-28T06:06:14;95463.88;;;8.78;46.13
22651;BME280;11492;42.646;23.400;2023-04-28T06:08:39;95471.97;;;8.98;45.81
22651;BME280;11492;42.646;23.400;2023-04-28T06:11:05;95466.66;;;8.92;45.84
22651;BME280;11492;42.646;23.400;2023-04-28T06:13:31;95466.84;;;9.06;45.58
22651;BME280;11492;42.646;23.400;2023-04-28T06:15:56;95455.53;;;8.99;44.89
22651;BME280;11492;42.646;23.400;2023-04-28T06:18:22;95457.97;;;9.01;44.04
22651;BME280;11492;42.646;23.400;2023-04-28T06:20:48;95468.13;;;9.18;44.18
22651;BME280;11492;42.646;23.400;2023-04-28T06:23:13;95467.16;;;9.19;44.12
22651;BME280;11492;42.646;23.400;2023-04-28T06:25:39;95468.97;;;9.26;43.98
22651;BME280;11492;42.646;23.400;2023-04-28T06:28:04;95469.09;;;9.25;43.40
22651;BME280;11492;42.646;23.400;2023-04-28T06:30:31;95468.66;;;9.37;43.81
22651;BME280;11492;42.646;23.400;2023-04-28T06:32:56;95471.72;;;9.48;44.21
22651;BME280;11492;42.646;23.400;2023-04-28T06:35:22;95470.41;;;9.60;43.66
22651;BME280;11492;42.646;23.400;2023-04-28T06:37:47;95459.94;;;9.70;44.52
22651;BME280;11492;42.646;23.400;2023-04-28T06:40:13;95443.34;;;9.64;43.25
22651;BME280;11492;42.646;23.400;2023-04-28T06:42:38;95447.84;;;9.78;43.00
22651;BME280;11492;42.646;23.400;2023-04-28T06:45:04;95444.00;;;9.90;44.06
22651;BME280;11492;42.646;23.400;2023-04-28T06:47:30;95457.53;;;9.99;42.35
22651;BME280;11492;42.646;23.400;2023-04-28T06:49:55;95453.31;;;10.06;42.98
22651;BME280;11492;42.646;23.400;2023-04-28T06:52:21;95449.72;;;10.23;42.67
22651;BME280;11492;42.646;23.400;2023-04-28T06:54:47;95454.19;;;10.29;42.57
22651;BME280;11492;42.646;23.400;2023-04-28T06:57:12;95448.09;;;10.22;42.72
22651;BME280;11492;42.646;23.400;2023-04-28T06:59:38;95449.38;;;10.26;41.79
22651;BME280;11492;42.646;23.400;2023-04-28T07:02:03;95449.34;;;10.34;41.64
22651;BME280;11492;42.646;23.400;2023-04-28T07:04:29;95455.31;;;10.42;41.39
22651;BME280;11492;42.646;23.400;2023-04-28T07:06:54;95454.75;;;10.54;41.53
22651;BME280;11492;42.646;23.400;2023-04-28T07:09:20;95451.00;;;10.65;41.45
22651;BME280;11492;42.646;23.400;2023-04-28T07:11:45;95446.13;;;10.77;41.22
22651;BME280;11492;42.646;23.400;2023-04-28T07:14:11;95443.19;;;10.80;41.03
22651;BME280;11492;42.646;23.400;2023-04-28T07:16:36;95442.66;;;10.85;42.30
22651;BME280;11492;42.646;23.400;2023-04-28T07:19:02;95447.41;;;11.03;41.02
22651;BME280;11492;42.646;23.400;2023-04-28T07:21:27;95441.19;;;11.12;41.96
22651;BME280;11492;42.646;23.400;2023-04-28T07:23:53;95449.03;;;11.26;40.67
22651;BME280;11492;42.646;23.400;2023-04-28T07:26:24;95441.28;;;11.26;40.05
22651;BME280;11492;42.646;23.400;2023-04-28T07:28:50;95443.69;;;11.28;39.71
22651;BME280;11492;42.646;23.400;2023-04-28T07:31:16;95450.31;;;11.30;39.59
22651;BME280;11492;42.646;23.400;2023-04-28T07:33:41;95440.16;;;11.29;41.38
22651;BME280;11492;42.646;23.400;2023-04-28T07:36:07;95432.72;;;11.26;39.04
22651;BME280;11492;42.646;23.400;2023-04-28T07:38:33;95447.34;;;11.41;39.55
22651;BME280;11492;42.646;23.400;2023-04-28T07:41:00;95436.88;;;11.57;39.03
22651;BME280;11492;42.646;23.400;2023-04-28T07:43:25;95432.38;;;11.73;39.62
22651;BME280;11492;42.646;23.400;2023-04-28T07:45:50;95449.63;;;11.95;38.61
22651;BME280;11492;42.646;23.400;2023-04-28T07:48:16;95440.47;;;12.06;37.97
22651;BME280;11492;42.646;23.400;2023-04-28T07:50:41;95440.66;;;12.19;36.99
22651;BME280;11492;42.646;23.400;2023-04-28T07:53:07;95431.56;;;12.23;37.15
22651;BME280;11492;42.646;23.400;2023-04-28T07:55:33;95437.53;;;12.38;35.98
22651;BME280;11492;42.646;23.400;2023-04-28T07:57:58;95440.81;;;12.60;36.93
22651;BME280;11492;42.646;23.400;2023-04-28T08:00:24;95435.81;;;12.87;35.64
22651;BME280;11492;42.646;23.400;2023-04-28T08:02:49;95427.34;;;13.55;34.53
22651;BME280;11492;42.646;23.400;2023-04-28T08:05:15;95434.09;;;14.51;33.78
22651;BME280;11492;42.646;23.400;2023-04-28T08:07:41;95426.06;;;15.45;32.49
22651;BME280;11492;42.646;23.400;2023-04-28T08:10:09;95431.97;;;16.10;31.11
22651;BME280;11492;42.646;23.400;2023-04-28T08:12:34;95421.22;;;16.69;29.64
22651;BME280;11492;42.646;23.400;2023-04-28T08:15:00;95428.22;;;17.31;29.17
22651;BME280;11492;42.646;23.400;2023-04-28T08:17:25;95416.34;;;17.35;29.70
22651;BME280;11492;42.646;23.400;2023-04-28T08:19:51;95415.19;;;17.85;28.54
22651;BME280;11492;42.646;23.400;2023-04-28T08:22:16;95416.44;;;17.83;28.92
22651;BME280;11492;42.646;23.400;2023-04-28T08:24:41;95420.78;;;18.43;28.26
22651;BME280;11492;42.646;23.400;2023-04-28T08:27:07;95414.75;;;18.78;27.30
22651;BME280;11492;42.646;23.400;2023-04-28T08:29:32;95412.00;;;18.55;27.04
22651;BME280;11492;42.646;23.400;2023-04-28T08:31:58;95416.91;;;18.46;26.72
22651;BME280;11492;42.646;23.400;2023-04-28T08:34:25;95397.72;;;18.34;26.52
22651;BME280;11492;42.646;23.400;2023-04-28T08:36:51;95402.63;;;18.48;27.18
22651;BME280;11492;42.646;23.400;2023-04-28T08:39:17;95410.44;;;18.90;27.66
22651;BME280;11492;42.646;23.400;2023-04-28T08:41:44;95402.00;;;19.05;26.39
22651;BME280;11492;42.646;23.400;2023-04-28T08:44:10;95404.91;;;18.98;26.34
22651;BME280;11492;42.646;23.400;2023-04-28T08:46:40;95407.09;;;19.58;26.62
22651;BME280;11492;42.646;23.400;2023-04-28T08:49:12;95412.94;;;20.12;25.64
22651;BME280;11492;42.646;23.400;2023-04-28T08:51:44;95405.59;;;19.80;25.66
22651;BME280;11492;42.646;23.400;2023-04-28T08:54:13;95388.00;;;20.09;25.82
22651;BME280;11492;42.646;23.400;2023-04-28T08:56:39;95389.81;;;20.43;24.17
22651;BME280;11492;42.646;23.400;2023-04-28T08:59:09;95397.69;;;20.43;24.58
22651;BME280;11492;42.646;23.400;2023-04-28T09:01:35;95389.38;;;20.46;24.25
22651;BME280;11492;42.646;23.400;2023-04-28T09:04:01;95391.06;;;20.74;24.49
22651;BME280;11492;42.646;23.400;2023-04-28T09:06:31;95386.84;;;20.73;24.53
22651;BME280;11492;42.646;23.400;2023-04-28T09:09:17;95390.38;;;20.33;24.97
22651;BME280;11492;42.646;23.400;2023-04-28T09:11:56;95390.28;;;20.62;24.54
22651;BME280;11492;42.646;23.400;2023-04-28T09:14:24;95382.75;;;20.77;24.76
22651;BME280;11492;42.646;23.400;2023-04-28T09:16:50;95369.75;;;20.59;25.06
22651;BME280;11492;42.646;23.400;2023-04-28T09:19:16;95350.03;;;20.57;24.28
22651;BME280;11492;42.646;23.400;2023-04-28T09:21:53;95373.19;;;20.71;24.23
22651;BME280;11492;42.646;23.400;2023-04-28T09:24:35;95373.16;;;20.03;25.30
22651;BME280;11492;42.646;23.400;2023-04-28T09:27:03;95366.56;;;20.23;24.20
22651;BME280;11492;42.646;23.400;2023-04-28T09:29:32;95364.06;;;20.40;25.14
22651;BME280;11492;42.646;23.400;2023-04-28T09:32:24;95364.78;;;20.97;24.73
22651;BME280;11492;42.646;23.400;2023-04-28T09:34:53;95370.72;;;21.31;24.32
22651;BME280;11492;42.646;23.400;2023-04-28T09:37:22;95356.47;;;21.54;24.39
22651;BME280;11492;42.646;23.400;2023-04-28T09:39:50;95357.94;;;20.84;23.93
22651;BME280;11492;42.646;23.400;2023-04-28T09:42:41;95350.22;;;21.44;24.36
22651;BME280;11492;42.646;23.400;2023-04-28T09:45:09;95346.31;;;21.90;23.61
22651;BME280;11492;42.646;23.400;2023-04-28T09:50:07;95337.22;;;22.30;22.92
22651;BME280;11492;42.646;23.400;2023-04-28T09:52:35;95341.50;;;21.55;23.12
22651;BME280;11492;42.646;23.400;2023-04-28T09:55:05;95326.25;;;22.00;22.85
22651;BME280;11492;42.646;23.400;2023-04-28T09:57:34;95339.13;;;22.34;22.08
22651;BME280;11492;42.646;23.400;2023-04-28T10:00:02;95325.41;;;22.32;22.39
22651;BME280;11492;42.646;23.400;2023-04-28T10:02:30;95320.78;;;22.23;22.17
22651;BME280;11492;42.646;23.400;2023-04-28T10:04:57;95327.25;;;22.69;21.90
22651;BME280;11492;42.646;23.400;2023-04-28T10:07:22;95321.22;;;22.90;21.77
22651;BME280;11492;42.646;23.400;2023-04-28T10:09:49;95320.50;;;23.20;21.31
22651;BME280;11492;42.646;23.400;2023-04-28T10:12:19;95308.28;;;23.09;21.57
22651;BME280;11492;42.646;23.400;2023-04-28T10:14:46;95311.53;;;23.42;21.44
22651;BME280;11492;42.646;23.400;2023-04-28T10:17:15;95303.63;;;23.68;21.63
22651;BME280;11492;42.646;23.400;2023-04-28T10:19:41;95308.59;;;23.18;21.02
22651;BME280;11492;42.646;23.400;2023-04-28T10:25:32;95307.28;;;23.41;20.61
22651;BME280;11492;42.646;23.400;2023-04-28T10:28:02;95313.06;;;23.64;20.58
22651;BME280;11492;42.646;23.400;2023-04-28T10:30:29;95308.53;;;23.91;20.24
22651;BME280;11492;42.646;23.400;2023-04-28T10:33:21;95308.47;;;23.03;19.57
22651;BME280;11492;42.646;23.400;2023-04-28T10:35:47;95296.13;;;22.87;20.42
22651;BME280;11492;42.646;23.400;2023-04-28T10:38:19;95301.41;;;23.55;20.55
22651;BME280;11492;42.646;23.400;2023-04-28T10:43:32;95284.91;;;24.05;19.95
22651;BME280;11492;42.646;23.400;2023-04-28T10:45:59;95291.66;;;23.09;20.60
22651;BME280;11492;42.646;23.400;2023-04-28T10:56:07;95280.69;;;23.43;21.94
22651;BME280;11492;42.646;23.400;2023-04-28T10:58:32;95270.97;;;23.48;20.10
22651;BME280;11492;42.646;23.400;2023-04-28T11:01:33;95271.25;;;23.47;20.17
22651;BME280;11492;42.646;23.400;2023-04-28T11:04:07;95263.34;;;23.47;21.00
22651;BME280;11492;42.646;23.400;2023-04-28T11:06:41;95267.19;;;23.96;20.41
22651;BME280;11492;42.646;23.400;2023-04-28T11:14:36;95255.22;;;24.20;19.38
22651;BME280;11492;42.646;23.400;2023-04-28T11:17:06;95253.50;;;24.45;19.43
22651;BME280;11492;42.646;23.400;2023-04-28T11:19:34;95258.59;;;24.15;18.71
22651;BME280;11492;42.646;23.400;2023-04-28T11:22:20;95245.69;;;24.69;19.43
22651;BME280;11492;42.646;23.400;2023-04-28T11:24:58;95252.22;;;25.17;18.46
22651;BME280;11492;42.646;23.400;2023-04-28T11:27:28;95242.25;;;25.63;18.22
22651;BME280;11492;42.646;23.400;2023-04-28T11:29:54;95253.38;;;25.85;18.01
22651;BME280;11492;42.646;23.400;2023-04-28T11:32:27;95233.47;;;26.22;18.23
22651;BME280;11492;42.646;23.400;2023-04-28T11:34:53;95237.72;;;26.18;17.98
22651;BME280;11492;42.646;23.400;2023-04-28T11:37:18;95226.91;;;26.09;18.44
22651;BME280;11492;42.646;23.400;2023-04-28T11:39:45;95227.97;;;26.08;17.84
22651;BME280;11492;42.646;23.400;2023-04-28T11:42:11;95223.97;;;25.86;17.40
22651;BME280;11492;42.646;23.400;2023-04-28T11:44:36;95225.00;;;26.29;17.41
22651;BME280;11492;42.646;23.400;2023-04-28T11:47:03;95234.81;;;26.00;17.40
22651;BME280;11492;42.646;23.400;2023-04-28T11:49:45;95230.88;;;25.73;18.43
22651;BME280;11492;42.646;23.400;2023-04-28T11:52:12;95214.44;;;25.76;18.08
22651;BME280;11492;42.646;23.400;2023-04-28T11:54:38;95213.75;;;26.62;16.89
22651;BME280;11492;42.646;23.400;2023-04-28T11:57:04;95214.63;;;26.43;15.87
22651;BME280;11492;42.646;23.400;2023-04-28T11:59:33;95207.25;;;26.30;16.71
22651;BME280;11492;42.646;23.400;2023-04-28T12:02:01;95214.31;;;26.54;16.66
22651;BME280;11492;42.646;23.400;2023-04-28T12:04:39;95209.84;;;27.07;16.07
22651;BME280;11492;42.646;23.400;2023-04-28T12:07:08;95208.06;;;27.73;16.20
22651;BME280;11492;42.646;23.400;2023-04-28T12:09:35;95202.81;;;27.63;16.16
22651;BME280;11492;42.646;23.400;2023-04-28T12:12:05;95199.53;;;27.76;15.97
22651;BME280;11492;42.646;23.400;2023-04-28T12:14:32;95202.28;;;27.99;15.85
22651;BME280;11492;42.646;23.400;2023-04-28T12:17:24;95191.81;;;27.47;16.46
22651;BME280;11492;42.646;23.400;2023-04-28T12:19:51;95184.31;;;28.14;16.73
22651;BME280;11492;42.646;23.400;2023-04-28T12:22:16;95180.56;;;27.92;16.21
22651;BME280;11492;42.646;23.400;2023-04-28T12:24:42;95185.88;;;28.66;16.46
22651;BME280;11492;42.646;23.400;2023-04-28T12:27:20;95174.56;;;28.79;15.81
22651;BME280;11492;42.646;23.400;2023-04-28T12:29:50;95173.16;;;29.05;15.71
22651;BME280;11492;42.646;23.400;2023-04-28T12:32:16;95185.31;;;28.46;16.08
22651;BME280;11492;42.646;23.400;2023-04-28T12:34:44;95170.22;;;26.78;15.64
22651;BME280;11492;42.646;23.400;2023-04-28T12:37:11;95158.06;;;25.16;17.61
22651;BME280;11492;42.646;23.400;2023-04-28T12:39:39;95160.09;;;24.75;18.85
22651;BME280;11492;42.646;23.400;2023-04-28T12:42:05;95187.34;;;23.44;19.46
22651;BME280;11492;42.646;23.400;2023-04-28T12:44:32;95161.25;;;23.16;19.05
22651;BME280;11492;42.646;23.400;2023-04-28T12:47:01;95180.09;;;22.73;20.08
22651;BME280;11492;42.646;23.400;2023-04-28T12:49:27;95170.47;;;21.82;20.42
22651;BME280;11492;42.646;23.400;2023-04-28T12:51:52;95170.19;;;21.63;20.68
22651;BME280;11492;42.646;23.400;2023-04-28T12:54:17;95167.81;;;20.97;22.38
22651;BME280;11492;42.646;23.400;2023-04-28T12:56:43;95161.75;;;21.12;23.06
22651;BME280;11492;42.646;23.400;2023-04-28T12:59:09;95154.69;;;21.45;22.58
22651;BME280;11492;42.646;23.400;2023-04-28T13:01:34;95148.41;;;21.30;22.56
22651;BME280;11492;42.646;23.400;2023-04-28T13:03:59;95148.13;;;21.48;22.72
22651;BME280;11492;42.646;23.400;2023-04-28T13:06:26;95146.03;;;21.28;22.36
22651;BME280;11492;42.646;23.400;2023-04-28T13:08:51;95145.53;;;21.31;23.13
22651;BME280;11492;42.646;23.400;2023-04-28T13:11:17;95148.63;;;21.45;23.65
22651;BME280;11492;42.646;23.400;2023-04-28T13:13:42;95154.13;;;20.40;23.29
22651;BME280;11492;42.646;23.400;2023-04-28T13:16:09;95153.94;;;20.30;24.44